sensor_id;sensor_type;location;lat;lon;timestamp;temperature;humidity
38237;DHT22;50101;49.438;11.098;2023-02-01T00:00:29;18.40;52.70
38237;DHT22;50101;49.438;11.098;2023-02-01T00:02:56;18.30;52.60
38237;DHT22;50101;49.438;11.098;2023-02-01T00:05:22;18.30;52.10
38237;DHT22;50101;49.438;11.098;2023-02-01T00:07:49;16.90;51.50
38237;DHT22;50101;49.438;11.098;2023-02-01T00:10:17;18.30;52.60
38237;DHT22;50101;49.438;11.098;2023-02-01T00:12:44;18.30;52.60
38237;DHT22;50101;49.438;11.098;2023-02-01T00:15:11;18.30;52.60
38237;DHT22;50101;49.438;11.098;2023-02-01T00:17:37;18.30;52.60
38237;DHT22;50101;49.438;11.098;2023-02-01T00:20:05;18.30;52.70
38237;DHT22;50101;49.438;11.098;2023-02-01T00:22:32;18.30;52.60
38237;DHT22;50101;49.438;11.098;2023-02-01T00:24:58;18.30;52.60
38237;DHT22;50101;49.438;11.098;2023-02-01T00:27:25;18.30;52.60
38237;DHT22;50101;49.438;11.098;2023-02-01T00:29:54;18.30;52.60
38237;DHT22;50101;49.438;11.098;2023-02-01T00:32:21;18.30;52.60
38237;DHT22;50101;49.438;11.098;2023-02-01T00:34:48;18.30;52.70
38237;DHT22;50101;49.438;11.098;2023-02-01T00:37:14;18.30;52.60
38237;DHT22;50101;49.438;11.098;2023-02-01T00:39:42;18.30;52.60
38237;DHT22;50101;49.438;11.098;2023-02-01T00:42:09;18.20;52.50
38237;DHT22;50101;49.438;11.098;2023-02-01T00:44:36;18.30;52.60
38237;DHT22;50101;49.438;11.098;2023-02-01T00:47:03;18.30;52.60
38237;DHT22;50101;49.438;11.098;2023-02-01T00:49:29;18.30;52.60
38237;DHT22;50101;49.438;11.098;2023-02-01T00:51:56;18.30;52.60
38237;DHT22;50101;49.438;11.098;2023-02-01T00:54:23;18.20;52.00
38237;DHT22;50101;49.438;11.098;2023-02-01T00:56:49;18.30;52.70
38237;DHT22;50101;49.438;11.098;2023-02-01T00:59:16;18.20;52.50
38237;DHT22;50101;49.438;11.098;2023-02-01T01:01:43;18.20;52.60
38237;DHT22;50101;49.438;11.098;2023-02-01T01:04:09;18.20;52.60
38237;DHT22;50101;49.438;11.098;2023-02-01T01:06:36;18.30;52.70
38237;DHT22;50101;49.438;11.098;2023-02-01T01:09:05;18.20;52.50
38237;DHT22;50101;49.438;11.098;2023-02-01T01:11:35;18.20;52.50
38237;DHT22;50101;49.438;11.098;2023-02-01T01:14:03;18.20;52.10
38237;DHT22;50101;49.438;11.098;2023-02-01T01:16:31;18.20;52.50
38237;DHT22;50101;49.438;11.098;2023-02-01T01:18:58;18.20;52.50
38237;DHT22;50101;49.438;11.098;2023-02-01T01:21:26;18.20;52.50
38237;DHT22;50101;49.438;11.098;2023-02-01T01:23:53;18.20;52.50
38237;DHT22;50101;49.438;11.098;2023-02-01T01:26:22;18.20;52.50
38237;DHT22;50101;49.438;11.098;2023-02-01T01:28:50;18.20;52.50
38237;DHT22;50101;49.438;11.098;2023-02-01T01:31:18;18.20;52.50
38237;DHT22;50101;49.438;11.098;2023-02-01T01:33:49;18.20;52.50
38237;DHT22;50101;49.438;11.098;2023-02-01T01:36:16;18.20;53.20
38237;DHT22;50101;49.438;11.098;2023-02-01T01:38:42;18.20;52.50
38237;DHT22;50101;49.438;11.098;2023-02-01T01:41:14;18.20;52.50
38237;DHT22;50101;49.438;11.098;2023-02-01T01:43:54;18.10;52.40
38237;DHT22;50101;49.438;11.098;2023-02-01T01:46:27;18.10;52.40
38237;DHT22;50101;49.438;11.098;2023-02-01T01:49:19;18.20;52.60
38237;DHT22;50101;49.438;11.098;2023-02-01T01:51:53;18.10;52.50
38237;DHT22;50101;49.438;11.098;2023-02-01T01:54:25;18.10;52.50
38237;DHT22;50101;49.438;11.098;2023-02-01T01:56:56;18.10;52.50
38237;DHT22;50101;49.438;11.098;2023-02-01T01:59:24;18.20;52.60
38237;DHT22;50101;49.438;11.098;2023-02-01T02:01:52;18.10;52.50
38237;DHT22;50101;49.438;11.098;2023-02-01T02:04:19;18.10;52.50
38237;DHT22;50101;49.438;11.098;2023-02-01T02:06:51;18.10;52.50
38237;DHT22;50101;49.438;11.098;2023-02-01T02:09:21;18.10;52.60
38237;DHT22;50101;49.438;11.098;2023-02-01T02:11:48;18.10;52.60
38237;DHT22;50101;49.438;11.098;2023-02-01T02:14:17;18.10;52.00
38237;DHT22;50101;49.438;11.098;2023-02-01T02:16:57;18.10;53.10
38237;DHT22;50101;49.438;11.098;2023-02-01T02:19:33;18.10;52.50
38237;DHT22;50101;49.438;11.098;2023-02-01T02:22:35;18.10;52.50
38237;DHT22;50101;49.438;11.098;2023-02-01T02:28:11;18.10;52.50
38237;DHT22;50101;49.438;11.098;2023-02-01T02:30:53;18.10;52.50
38237;DHT22;50101;49.438;11.098;2023-02-01T02:33:52;18.10;52.50
38237;DHT22;50101;49.438;11.098;2023-02-01T02:39:12;18.10;52.50
38237;DHT22;50101;49.438;11.098;2023-02-01T02:42:03;18.10;52.60
38237;DHT22;50101;49.438;11.098;2023-02-01T02:44:59;18.10;52.50
38237;DHT22;50101;49.438;11.098;2023-02-01T02:48:04;18.10;52.50
38237;DHT22;50101;49.438;11.098;2023-02-01T02:51:12;18.10;52.60
38237;DHT22;50101;49.438;11.098;2023-02-01T02:54:13;18.00;52.50
38237;DHT22;50101;49.438;11.098;2023-02-01T02:57:02;18.10;52.60
38237;DHT22;50101;49.438;11.098;2023-02-01T02:59:49;18.00;52.50
38237;DHT22;50101;49.438;11.098;2023-02-01T03:02:34;18.10;52.60
38237;DHT22;50101;49.438;11.098;2023-02-01T03:05:20;18.00;52.60
38237;DHT22;50101;49.438;11.098;2023-02-01T03:08:02;18.00;52.60
38237;DHT22;50101;49.438;11.098;2023-02-01T03:16:18;18.00;52.60
38237;DHT22;50101;49.438;11.098;2023-02-01T03:19:00;18.00;52.60
38237;DHT22;50101;49.438;11.098;2023-02-01T03:21:35;18.00;52.60
38237;DHT22;50101;49.438;11.098;2023-02-01T03:24:14;18.00;52.60
38237;DHT22;50101;49.438;11.098;2023-02-01T03:26:49;18.00;52.60
38237;DHT22;50101;49.438;11.098;2023-02-01T03:29:24;18.00;52.60
38237;DHT22;50101;49.438;11.098;2023-02-01T03:31:53;18.00;52.60
38237;DHT22;50101;49.438;11.098;2023-02-01T03:34:19;18.00;52.60
38237;DHT22;50101;49.438;11.098;2023-02-01T03:36:50;18.00;52.60
38237;DHT22;50101;49.438;11.098;2023-02-01T03:39:30;18.00;52.60
38237;DHT22;50101;49.438;11.098;2023-02-01T03:42:02;18.00;52.60
38237;DHT22;50101;49.438;11.098;2023-02-01T03:44:38;18.00;52.60
38237;DHT22;50101;49.438;11.098;2023-02-01T03:47:16;18.00;52.70
38237;DHT22;50101;49.438;11.098;2023-02-01T03:49:50;18.00;52.60
38237;DHT22;50101;49.438;11.098;2023-02-01T03:52:22;18.00;52.70
38237;DHT22;50101;49.438;11.098;2023-02-01T03:54:51;18.00;52.60
38237;DHT22;50101;49.438;11.098;2023-02-01T03:57:23;18.00;52.70
38237;DHT22;50101;49.438;11.098;2023-02-01T03:59:53;18.00;52.60
38237;DHT22;50101;49.438;11.098;2023-02-01T04:02:19;18.00;52.70
38237;DHT22;50101;49.438;11.098;2023-02-01T04:04:46;18.00;52.60
38237;DHT22;50101;49.438;11.098;2023-02-01T04:07:13;18.00;52.70
38237;DHT22;50101;49.438;11.098;2023-02-01T04:09:39;18.00;52.60
38237;DHT22;50101;49.438;11.098;2023-02-01T04:12:06;18.00;52.70
38237;DHT22;50101;49.438;11.098;2023-02-01T04:14:33;18.00;52.70
38237;DHT22;50101;49.438;11.098;2023-02-01T04:16:59;18.00;52.70
38237;DHT22;50101;49.438;11.098;2023-02-01T04:19:26;18.00;52.70
38237;DHT22;50101;49.438;11.098;2023-02-01T04:21:53;17.90;52.60
38237;DHT22;50101;49.438;11.098;2023-02-01T04:24:19;18.40;52.50
38237;DHT22;50101;49.438;11.098;2023-02-01T04:26:46;17.90;52.60
38237;DHT22;50101;49.438;11.098;2023-02-01T04:29:13;17.90;52.60
38237;DHT22;50101;49.438;11.098;2023-02-01T04:31:39;17.90;52.60
38237;DHT22;50101;49.438;11.098;2023-02-01T04:34:06;17.90;52.60
38237;DHT22;50101;49.438;11.098;2023-02-01T04:36:33;17.90;52.60
38237;DHT22;50101;49.438;11.098;2023-02-01T04:38:59;17.90;53.00
38237;DHT22;50101;49.438;11.098;2023-02-01T04:41:26;17.90;52.70
38237;DHT22;50101;49.438;11.098;2023-02-01T04:43:53;17.90;52.70
38237;DHT22;50101;49.438;11.098;2023-02-01T04:46:20;17.90;52.70
38237;DHT22;50101;49.438;11.098;2023-02-01T04:48:46;17.90;52.70
38237;DHT22;50101;49.438;11.098;2023-02-01T04:51:13;17.90;52.60
38237;DHT22;50101;49.438;11.098;2023-02-01T04:53:41;17.90;52.70
38237;DHT22;50101;49.438;11.098;2023-02-01T04:56:08;17.90;52.70
38237;DHT22;50101;49.438;11.098;2023-02-01T04:58:34;17.90;52.70
38237;DHT22;50101;49.438;11.098;2023-02-01T05:01:05;17.90;52.70
38237;DHT22;50101;49.438;11.098;2023-02-01T05:03:33;17.90;52.60
38237;DHT22;50101;49.438;11.098;2023-02-01T05:06:00;17.90;52.60
38237;DHT22;50101;49.438;11.098;2023-02-01T05:08:27;18.00;52.70
38237;DHT22;50101;49.438;11.098;2023-02-01T05:10:55;18.00;52.70
38237;DHT22;50101;49.438;11.098;2023-02-01T05:13:22;18.00;52.80
38237;DHT22;50101;49.438;11.098;2023-02-01T05:16:07;18.00;52.80
38237;DHT22;50101;49.438;11.098;2023-02-01T05:18:34;18.00;52.80
38237;DHT22;50101;49.438;11.098;2023-02-01T05:21:01;18.00;52.90
38237;DHT22;50101;49.438;11.098;2023-02-01T05:23:28;17.90;52.80
38237;DHT22;50101;49.438;11.098;2023-02-01T05:26:03;18.00;53.00
38237;DHT22;50101;49.438;11.098;2023-02-01T05:28:30;18.00;52.90
38237;DHT22;50101;49.438;11.098;2023-02-01T05:30:56;18.00;53.00
38237;DHT22;50101;49.438;11.098;2023-02-01T05:33:23;18.00;53.00
38237;DHT22;50101;49.438;11.098;2023-02-01T05:35:50;18.00;52.50
38237;DHT22;50101;49.438;11.098;2023-02-01T05:38:17;18.00;53.10
38237;DHT22;50101;49.438;11.098;2023-02-01T05:40:43;18.00;53.00
38237;DHT22;50101;49.438;11.098;2023-02-01T05:43:15;18.00;53.10
38237;DHT22;50101;49.438;11.098;2023-02-01T05:45:42;18.10;53.20
38237;DHT22;50101;49.438;11.098;2023-02-01T05:48:09;18.10;53.30
38237;DHT22;50101;49.438;11.098;2023-02-01T05:50:37;18.10;53.40
38237;DHT22;50101;49.438;11.098;2023-02-01T05:53:03;18.10;53.50
38237;DHT22;50101;49.438;11.098;2023-02-01T05:55:30;18.20;53.60
38237;DHT22;50101;49.438;11.098;2023-02-01T05:57:57;18.20;53.70
38237;DHT22;50101;49.438;11.098;2023-02-01T06:00:24;18.20;53.70
38237;DHT22;50101;49.438;11.098;2023-02-01T06:02:51;18.20;53.80
38237;DHT22;50101;49.438;11.098;2023-02-01T06:05:17;18.20;53.90
38237;DHT22;50101;49.438;11.098;2023-02-01T06:07:44;18.20;53.90
38237;DHT22;50101;49.438;11.098;2023-02-01T06:10:11;18.10;53.80
38237;DHT22;50101;49.438;11.098;2023-02-01T06:12:37;18.10;53.80
38237;DHT22;50101;49.438;11.098;2023-02-01T06:15:04;18.10;53.80
38237;DHT22;50101;49.438;11.098;2023-02-01T06:17:31;18.10;53.80
38237;DHT22;50101;49.438;11.098;2023-02-01T06:19:58;18.10;53.80
38237;DHT22;50101;49.438;11.098;2023-02-01T06:22:24;18.10;53.80
38237;DHT22;50101;49.438;11.098;2023-02-01T06:24:51;18.10;53.80
38237;DHT22;50101;49.438;11.098;2023-02-01T06:27:18;18.10;53.80
38237;DHT22;50101;49.438;11.098;2023-02-01T06:29:44;18.10;53.80
38237;DHT22;50101;49.438;11.098;2023-02-01T06:32:11;18.10;53.70
38237;DHT22;50101;49.438;11.098;2023-02-01T06:34:38;18.10;53.70
38237;DHT22;50101;49.438;11.098;2023-02-01T06:37:05;18.10;53.70
38237;DHT22;50101;49.438;11.098;2023-02-01T06:39:32;18.10;53.70
38237;DHT22;50101;49.438;11.098;2023-02-01T06:41:59;18.10;53.60
38237;DHT22;50101;49.438;11.098;2023-02-01T06:44:25;18.10;53.60
38237;DHT22;50101;49.438;11.098;2023-02-01T06:46:52;18.10;53.60
38237;DHT22;50101;49.438;11.098;2023-02-01T06:49:19;18.10;53.60
38237;DHT22;50101;49.438;11.098;2023-02-01T06:51:46;18.20;54.40
38237;DHT22;50101;49.438;11.098;2023-02-01T06:54:12;18.10;53.80
38237;DHT22;50101;49.438;11.098;2023-02-01T06:56:39;18.20;53.90
38237;DHT22;50101;49.438;11.098;2023-02-01T06:59:07;18.20;53.90
38237;DHT22;50101;49.438;11.098;2023-02-01T07:01:34;18.30;54.40
38237;DHT22;50101;49.438;11.098;2023-02-01T07:04:00;18.30;54.40
38237;DHT22;50101;49.438;11.098;2023-02-01T07:06:27;18.30;54.90
38237;DHT22;50101;49.438;11.098;2023-02-01T07:08:54;18.30;54.90
38237;DHT22;50101;49.438;11.098;2023-02-01T07:11:24;18.40;55.20
38237;DHT22;50101;49.438;11.098;2023-02-01T07:13:50;18.40;55.40
38237;DHT22;50101;49.438;11.098;2023-02-01T07:16:18;18.40;55.20
38237;DHT22;50101;49.438;11.098;2023-02-01T07:18:46;18.40;55.20
38237;DHT22;50101;49.438;11.098;2023-02-01T07:21:13;18.40;55.40
38237;DHT22;50101;49.438;11.098;2023-02-01T07:23:39;18.40;55.30
38237;DHT22;50101;49.438;11.098;2023-02-01T07:26:09;18.40;55.50
38237;DHT22;50101;49.438;11.098;2023-02-01T07:28:37;18.40;55.50
38237;DHT22;50101;49.438;11.098;2023-02-01T07:31:12;18.50;55.70
38237;DHT22;50101;49.438;11.098;2023-02-01T07:33:41;18.50;55.60
38237;DHT22;50101;49.438;11.098;2023-02-01T07:36:12;18.50;55.40
38237;DHT22;50101;49.438;11.098;2023-02-01T07:38:39;18.50;55.50
38237;DHT22;50101;49.438;11.098;2023-02-01T07:41:06;18.50;55.50
38237;DHT22;50101;49.438;11.098;2023-02-01T07:43:36;18.50;55.10
38237;DHT22;50101;49.438;11.098;2023-02-01T07:46:04;18.50;55.60
38237;DHT22;50101;49.438;11.098;2023-02-01T07:48:31;18.50;55.60
38237;DHT22;50101;49.438;11.098;2023-02-01T07:51:11;18.50;55.60
38237;DHT22;50101;49.438;11.098;2023-02-01T07:53:39;18.50;55.50
38237;DHT22;50101;49.438;11.098;2023-02-01T07:56:17;18.60;55.70
38237;DHT22;50101;49.438;11.098;2023-02-01T07:58:51;18.60;55.60
38237;DHT22;50101;49.438;11.098;2023-02-01T08:01:19;18.60;55.80
38237;DHT22;50101;49.438;11.098;2023-02-01T08:03:48;18.60;55.90
38237;DHT22;50101;49.438;11.098;2023-02-01T08:06:15;18.60;55.70
38237;DHT22;50101;49.438;11.098;2023-02-01T08:08:42;18.60;55.60
38237;DHT22;50101;49.438;11.098;2023-02-01T08:11:12;18.70;56.60
38237;DHT22;50101;49.438;11.098;2023-02-01T08:13:39;18.60;55.80
38237;DHT22;50101;49.438;11.098;2023-02-01T08:16:07;18.60;55.70
38237;DHT22;50101;49.438;11.098;2023-02-01T08:18:36;18.60;55.60
38237;DHT22;50101;49.438;11.098;2023-02-01T08:21:13;18.70;55.70
38237;DHT22;50101;49.438;11.098;2023-02-01T08:23:41;18.70;55.10
38237;DHT22;50101;49.438;11.098;2023-02-01T08:26:17;18.70;55.70
38237;DHT22;50101;49.438;11.098;2023-02-01T08:28:48;18.70;55.50
38237;DHT22;50101;49.438;11.098;2023-02-01T08:31:16;18.70;55.60
38237;DHT22;50101;49.438;11.098;2023-02-01T08:33:48;18.70;55.20
38237;DHT22;50101;49.438;11.098;2023-02-01T08:36:15;18.70;55.80
38237;DHT22;50101;49.438;11.098;2023-02-01T08:38:42;18.70;55.60
38237;DHT22;50101;49.438;11.098;2023-02-01T08:41:11;18.70;55.60
38237;DHT22;50101;49.438;11.098;2023-02-01T08:43:38;18.70;55.50
38237;DHT22;50101;49.438;11.098;2023-02-01T08:46:05;18.70;55.40
38237;DHT22;50101;49.438;11.098;2023-02-01T08:48:33;18.70;55.70
38237;DHT22;50101;49.438;11.098;2023-02-01T08:51:02;18.70;56.30
38237;DHT22;50101;49.438;11.098;2023-02-01T08:53:29;18.70;55.70
38237;DHT22;50101;49.438;11.098;2023-02-01T08:55:56;18.70;55.70
38237;DHT22;50101;49.438;11.098;2023-02-01T08:58:22;18.70;55.60
38237;DHT22;50101;49.438;11.098;2023-02-01T09:00:49;18.70;55.60
38237;DHT22;50101;49.438;11.098;2023-02-01T09:03:16;18.70;55.60
38237;DHT22;50101;49.438;11.098;2023-02-01T09:05:43;18.60;55.50
38237;DHT22;50101;49.438;11.098;2023-02-01T09:08:15;18.70;55.60
38237;DHT22;50101;49.438;11.098;2023-02-01T09:10:42;18.70;55.60
38237;DHT22;50101;49.438;11.098;2023-02-01T09:13:09;18.70;55.60
38237;DHT22;50101;49.438;11.098;2023-02-01T09:15:37;18.70;55.60
38237;DHT22;50101;49.438;11.098;2023-02-01T09:18:04;18.70;55.60
38237;DHT22;50101;49.438;11.098;2023-02-01T09:20:30;18.70;55.40
38237;DHT22;50101;49.438;11.098;2023-02-01T09:22:57;18.70;55.60
38237;DHT22;50101;49.438;11.098;2023-02-01T09:25:24;18.80;55.20
38237;DHT22;50101;49.438;11.098;2023-02-01T09:27:50;18.70;55.60
38237;DHT22;50101;49.438;11.098;2023-02-01T09:30:17;18.70;55.70
38237;DHT22;50101;49.438;11.098;2023-02-01T09:32:44;18.70;55.70
38237;DHT22;50101;49.438;11.098;2023-02-01T09:35:10;18.70;55.40
38237;DHT22;50101;49.438;11.098;2023-02-01T09:37:37;18.70;55.20
38237;DHT22;50101;49.438;11.098;2023-02-01T09:40:04;18.70;55.10
38237;DHT22;50101;49.438;11.098;2023-02-01T09:42:54;18.70;55.20
38237;DHT22;50101;49.438;11.098;2023-02-01T09:45:32;18.70;55.20
38237;DHT22;50101;49.438;11.098;2023-02-01T09:48:08;18.50;53.90
38237;DHT22;50101;49.438;11.098;2023-02-01T09:50:38;18.40;52.60
38237;DHT22;50101;49.438;11.098;2023-02-01T09:56:05;18.10;51.00
38237;DHT22;50101;49.438;11.098;2023-02-01T09:58:37;18.20;52.40
38237;DHT22;50101;49.438;11.098;2023-02-01T10:01:24;18.30;52.10
38237;DHT22;50101;49.438;11.098;2023-02-01T10:03:57;18.40;52.50
38237;DHT22;50101;49.438;11.098;2023-02-01T10:16:52;18.60;52.50
38237;DHT22;50101;49.438;11.098;2023-02-01T10:22:41;18.70;53.20
38237;DHT22;50101;49.438;11.098;2023-02-01T10:25:44;18.70;53.20
38237;DHT22;50101;49.438;11.098;2023-02-01T10:28:18;18.70;53.10
38237;DHT22;50101;49.438;11.098;2023-02-01T10:30:49;18.70;53.30
38237;DHT22;50101;49.438;11.098;2023-02-01T10:33:30;18.70;53.40
38237;DHT22;50101;49.438;11.098;2023-02-01T10:36:08;18.70;53.60
38237;DHT22;50101;49.438;11.098;2023-02-01T10:38:37;18.70;53.60
38237;DHT22;50101;49.438;11.098;2023-02-01T10:41:12;18.80;53.90
38237;DHT22;50101;49.438;11.098;2023-02-01T10:43:40;18.70;54.00
38237;DHT22;50101;49.438;11.098;2023-02-01T10:46:07;18.70;54.60
38237;DHT22;50101;49.438;11.098;2023-02-01T10:48:35;18.80;54.10
38237;DHT22;50101;49.438;11.098;2023-02-01T10:51:06;18.70;54.20
38237;DHT22;50101;49.438;11.098;2023-02-01T10:56:13;18.70;54.00
38237;DHT22;50101;49.438;11.098;2023-02-01T10:58:45;18.80;54.10
38237;DHT22;50101;49.438;11.098;2023-02-01T11:01:19;18.70;54.00
38237;DHT22;50101;49.438;11.098;2023-02-01T11:03:53;18.80;54.00
38237;DHT22;50101;49.438;11.098;2023-02-01T11:17:02;18.80;54.40
38237;DHT22;50101;49.438;11.098;2023-02-01T11:19:37;18.80;54.40
38237;DHT22;50101;49.438;11.098;2023-02-01T11:22:05;18.80;54.30
38237;DHT22;50101;49.438;11.098;2023-02-01T11:24:35;18.80;54.40
38237;DHT22;50101;49.438;11.098;2023-02-01T11:27:04;18.80;54.40
38237;DHT22;50101;49.438;11.098;2023-02-01T11:29:37;18.80;54.40
38237;DHT22;50101;49.438;11.098;2023-02-01T11:32:08;18.80;54.40
38237;DHT22;50101;49.438;11.098;2023-02-01T11:34:47;18.80;54.40
38237;DHT22;50101;49.438;11.098;2023-02-01T11:37:21;18.80;54.40
38237;DHT22;50101;49.438;11.098;2023-02-01T11:39:57;18.80;54.40
38237;DHT22;50101;49.438;11.098;2023-02-01T11:42:26;18.80;54.40
38237;DHT22;50101;49.438;11.098;2023-02-01T11:45:45;18.90;54.00
38237;DHT22;50101;49.438;11.098;2023-02-01T11:48:15;18.80;54.40
38237;DHT22;50101;49.438;11.098;2023-02-01T11:53:56;18.90;54.60
38237;DHT22;50101;49.438;11.098;2023-02-01T11:56:36;18.90;54.10
38237;DHT22;50101;49.438;11.098;2023-02-01T11:59:17;18.90;54.60
38237;DHT22;50101;49.438;11.098;2023-02-01T12:04:49;18.90;54.60
38237;DHT22;50101;49.438;11.098;2023-02-01T12:07:36;18.90;54.70
38237;DHT22;50101;49.438;11.098;2023-02-01T12:12:54;18.90;54.60
38237;DHT22;50101;49.438;11.098;2023-02-01T12:32:09;18.90;54.70
38237;DHT22;50101;49.438;11.098;2023-02-01T12:37:22;18.90;54.80
38237;DHT22;50101;49.438;11.098;2023-02-01T12:42:37;18.90;54.70
38237;DHT22;50101;49.438;11.098;2023-02-01T12:48:59;19.00;54.80
38237;DHT22;50101;49.438;11.098;2023-02-01T12:51:31;19.00;54.90
38237;DHT22;50101;49.438;11.098;2023-02-01T12:57:06;18.90;55.30
38237;DHT22;50101;49.438;11.098;2023-02-01T13:08:16;18.90;54.60
38237;DHT22;50101;49.438;11.098;2023-02-01T13:10:54;18.80;54.40
38237;DHT22;50101;49.438;11.098;2023-02-01T13:13:31;18.80;54.40
38237;DHT22;50101;49.438;11.098;2023-02-01T13:16:15;18.80;54.40
38237;DHT22;50101;49.438;11.098;2023-02-01T13:18:47;18.80;54.40
38237;DHT22;50101;49.438;11.098;2023-02-01T13:21:21;18.80;54.40
38237;DHT22;50101;49.438;11.098;2023-02-01T13:23:49;18.70;54.30
38237;DHT22;50101;49.438;11.098;2023-02-01T13:26:19;18.80;54.40
38237;DHT22;50101;49.438;11.098;2023-02-01T13:29:01;18.80;54.40
38237;DHT22;50101;49.438;11.098;2023-02-01T13:31:40;18.80;54.40
38237;DHT22;50101;49.438;11.098;2023-02-01T13:34:36;18.90;54.60
38237;DHT22;50101;49.438;11.098;2023-02-01T13:39:48;18.90;54.60
38237;DHT22;50101;49.438;11.098;2023-02-01T13:42:26;18.90;54.70
38237;DHT22;50101;49.438;11.098;2023-02-01T13:45:02;18.90;54.20
38237;DHT22;50101;49.438;11.098;2023-02-01T13:47:39;18.90;54.70
38237;DHT22;50101;49.438;11.098;2023-02-01T13:55:40;18.90;54.80
38237;DHT22;50101;49.438;11.098;2023-02-01T14:00:42;19.00;54.90
38237;DHT22;50101;49.438;11.098;2023-02-01T14:03:17;19.00;55.00
38237;DHT22;50101;49.438;11.098;2023-02-01T14:08:21;19.00;55.00
38237;DHT22;50101;49.438;11.098;2023-02-01T14:10:58;19.00;54.90
38237;DHT22;50101;49.438;11.098;2023-02-01T14:13:37;19.00;54.70
38237;DHT22;50101;49.438;11.098;2023-02-01T14:24:25;19.00;54.90
38237;DHT22;50101;49.438;11.098;2023-02-01T14:26:53;19.00;54.90
38237;DHT22;50101;49.438;11.098;2023-02-01T14:29:32;19.00;54.90
38237;DHT22;50101;49.438;11.098;2023-02-01T14:55:42;19.00;55.00
38237;DHT22;50101;49.438;11.098;2023-02-01T15:04:05;19.10;55.40
38237;DHT22;50101;49.438;11.098;2023-02-01T15:11:58;19.10;55.40
38237;DHT22;50101;49.438;11.098;2023-02-01T15:14:27;19.10;55.30
38237;DHT22;50101;49.438;11.098;2023-02-01T15:16:54;19.10;55.20
38237;DHT22;50101;49.438;11.098;2023-02-01T15:19:23;19.10;55.30
38237;DHT22;50101;49.438;11.098;2023-02-01T15:21:52;19.10;55.40
38237;DHT22;50101;49.438;11.098;2023-02-01T15:24:25;19.10;54.90
38237;DHT22;50101;49.438;11.098;2023-02-01T15:26:53;19.10;54.90
38237;DHT22;50101;49.438;11.098;2023-02-01T15:29:23;19.10;55.50
38237;DHT22;50101;49.438;11.098;2023-02-01T15:31:54;19.10;55.50
38237;DHT22;50101;49.438;11.098;2023-02-01T15:34:22;19.10;55.00
38237;DHT22;50101;49.438;11.098;2023-02-01T15:36:49;19.10;55.40
38237;DHT22;50101;49.438;11.098;2023-02-01T15:39:28;19.10;55.50
38237;DHT22;50101;49.438;11.098;2023-02-01T15:42:12;19.10;55.50
38237;DHT22;50101;49.438;11.098;2023-02-01T15:47:23;19.00;54.90
38237;DHT22;50101;49.438;11.098;2023-02-01T15:49:55;19.10;55.50
38237;DHT22;50101;49.438;11.098;2023-02-01T15:52:39;19.10;55.50
38237;DHT22;50101;49.438;11.098;2023-02-01T15:55:18;19.10;55.40
38237;DHT22;50101;49.438;11.098;2023-02-01T15:57:47;19.00;55.40
38237;DHT22;50101;49.438;11.098;2023-02-01T16:00:25;19.00;55.40
38237;DHT22;50101;49.438;11.098;2023-02-01T16:03:05;18.90;55.40
38237;DHT22;50101;49.438;11.098;2023-02-01T16:05:37;18.90;54.90
38237;DHT22;50101;49.438;11.098;2023-02-01T16:08:26;18.90;55.40
38237;DHT22;50101;49.438;11.098;2023-02-01T16:11:00;18.90;55.40
38237;DHT22;50101;49.438;11.098;2023-02-01T16:13:28;18.90;55.40
38237;DHT22;50101;49.438;11.098;2023-02-01T16:15:55;18.80;54.70
38237;DHT22;50101;49.438;11.098;2023-02-01T16:18:21;18.90;55.40
38237;DHT22;50101;49.438;11.098;2023-02-01T16:20:48;18.80;55.30
38237;DHT22;50101;49.438;11.098;2023-02-01T16:23:15;18.90;55.30
38237;DHT22;50101;49.438;11.098;2023-02-01T16:25:42;18.90;55.40
38237;DHT22;50101;49.438;11.098;2023-02-01T16:28:09;19.00;55.50
38237;DHT22;50101;49.438;11.098;2023-02-01T16:30:35;19.00;55.50
38237;DHT22;50101;49.438;11.098;2023-02-01T16:33:03;19.00;55.40
38237;DHT22;50101;49.438;11.098;2023-02-01T16:35:34;18.90;55.40
38237;DHT22;50101;49.438;11.098;2023-02-01T16:38:13;19.00;55.50
38237;DHT22;50101;49.438;11.098;2023-02-01T16:40:42;19.00;55.40
38237;DHT22;50101;49.438;11.098;2023-02-01T16:43:21;19.00;55.60
38237;DHT22;50101;49.438;11.098;2023-02-01T16:45:49;19.00;55.50
38237;DHT22;50101;49.438;11.098;2023-02-01T16:50:49;19.00;55.60
38237;DHT22;50101;49.438;11.098;2023-02-01T16:53:17;19.00;55.60
38237;DHT22;50101;49.438;11.098;2023-02-01T16:55:44;18.90;55.10
38237;DHT22;50101;49.438;11.098;2023-02-01T16:58:13;18.90;55.70
38237;DHT22;50101;49.438;11.098;2023-02-01T17:00:40;18.80;55.40
38237;DHT22;50101;49.438;11.098;2023-02-01T17:03:09;18.90;55.80
38237;DHT22;50101;49.438;11.098;2023-02-01T17:05:36;18.80;55.80
38237;DHT22;50101;49.438;11.098;2023-02-01T17:08:05;18.80;55.60
38237;DHT22;50101;49.438;11.098;2023-02-01T17:10:33;18.80;55.70
38237;DHT22;50101;49.438;11.098;2023-02-01T17:13:01;18.80;55.60
38237;DHT22;50101;49.438;11.098;2023-02-01T17:15:32;18.80;55.20
38237;DHT22;50101;49.438;11.098;2023-02-01T17:18:01;18.80;55.70
38237;DHT22;50101;49.438;11.098;2023-02-01T17:20:30;18.80;55.50
38237;DHT22;50101;49.438;11.098;2023-02-01T17:22:58;18.70;55.60
38237;DHT22;50101;49.438;11.098;2023-02-01T17:25:26;18.70;55.60
38237;DHT22;50101;49.438;11.098;2023-02-01T17:27:53;18.70;55.50
38237;DHT22;50101;49.438;11.098;2023-02-01T17:30:20;18.70;55.60
38237;DHT22;50101;49.438;11.098;2023-02-01T17:32:47;18.70;55.70
38237;DHT22;50101;49.438;11.098;2023-02-01T17:35:20;18.70;55.20
38237;DHT22;50101;49.438;11.098;2023-02-01T17:37:48;18.70;55.70
38237;DHT22;50101;49.438;11.098;2023-02-01T17:40:15;18.70;55.70
38237;DHT22;50101;49.438;11.098;2023-02-01T17:42:42;18.70;55.70
38237;DHT22;50101;49.438;11.098;2023-02-01T17:45:37;18.60;55.60
38237;DHT22;50101;49.438;11.098;2023-02-01T17:48:07;18.70;55.70
38237;DHT22;50101;49.438;11.098;2023-02-01T17:50:35;18.60;55.70
38237;DHT22;50101;49.438;11.098;2023-02-01T17:53:03;18.70;55.80
38237;DHT22;50101;49.438;11.098;2023-02-01T17:55:34;18.60;55.70
38237;DHT22;50101;49.438;11.098;2023-02-01T17:58:01;18.60;55.70
38237;DHT22;50101;49.438;11.098;2023-02-01T18:00:27;18.60;55.70
38237;DHT22;50101;49.438;11.098;2023-02-01T18:02:54;18.60;55.80
38237;DHT22;50101;49.438;11.098;2023-02-01T18:05:27;18.60;55.70
38237;DHT22;50101;49.438;11.098;2023-02-01T18:07:55;18.60;55.70